Time;durP1;ratioP1;P1;durP2;ratioP2;P2;SDS_P1;SDS_P2;PMS_P1;PMS_P2;Temp;Humidity;BMP_temperature;BMP_pressure;BME280_temperature;BME280_humidity;BME280_pressure;Samples;Min_cycle;Max_cycle;Signal;HPM_P1;HPM_P2
2023/10/08 00:03:10;;;;;;;1.52;0.75;;;17.90;85.20;;;;;;4742252;30;20067;-77
2023/10/08 00:05:37;;;;;;;1.77;0.90;;;17.80;85.20;;;;;;4748954;30;20020;-79
2023/10/08 00:08:06;;;;;;;2.50;1.10;;;17.80;85.20;;;;;;4760716;30;20045;-78
2023/10/08 00:10:41;;;;;;;2.92;1.05;;;17.80;85.30;;;;;;4755868;30;20020;-79
2023/10/08 00:13:09;;;;;;;2.60;1.05;;;17.80;85.40;;;;;;4756889;30;20047;-79
2023/10/08 00:15:36;;;;;;;2.60;0.98;;;17.80;85.40;;;;;;4745055;30;20036;-79
2023/10/08 00:18:06;;;;;;;1.52;0.90;;;17.80;85.50;;;;;;4749915;30;20084;-80
2023/10/08 00:20:37;;;;;;;1.63;0.65;;;17.80;85.60;;;;;;4754991;30;20029;-79
2023/10/08 00:23:07;;;;;;;1.95;0.90;;;17.80;85.60;;;;;;4743026;30;20413;-74
2023/10/08 00:25:34;;;;;;;1.73;0.80;;;17.80;85.70;;;;;;4738217;30;20385;-78
2023/10/08 00:28:01;;;;;;;2.58;0.98;;;17.70;85.70;;;;;;4724141;30;20044;-78
2023/10/08 00:30:27;;;;;;;2.53;0.95;;;17.70;85.80;;;;;;4738886;30;20127;-79
2023/10/08 00:32:53;;;;;;;3.80;1.25;;;17.70;85.90;;;;;;4751971;30;20471;-79
2023/10/08 00:35:20;;;;;;;1.85;0.88;;;17.70;86.00;;;;;;4709124;30;20134;-79
2023/10/08 00:37:48;;;;;;;2.15;0.90;;;17.70;86.00;;;;;;4739381;30;20052;-80
2023/10/08 00:40:21;;;;;;;2.95;1.25;;;17.70;86.00;;;;;;4739212;30;20123;-78
2023/10/08 00:42:47;;;;;;;4.32;1.15;;;17.70;86.10;;;;;;4720346;30;20126;-79
2023/10/08 00:45:14;;;;;;;4.40;1.48;;;17.70;86.10;;;;;;4748627;30;20493;-79
2023/10/08 00:47:43;;;;;;;2.10;1.00;;;17.70;86.20;;;;;;4735346;30;20052;-79
2023/10/08 00:50:19;;;;;;;2.58;1.20;;;17.70;86.30;;;;;;4722765;30;20056;-81
2023/10/08 00:52:57;;;;;;;2.83;0.90;;;17.70;86.30;;;;;;4750466;30;20102;-79
2023/10/08 00:55:28;;;;;;;2.50;1.17;;;17.70;86.40;;;;;;4754084;30;20119;-78
2023/10/08 00:57:58;;;;;;;2.97;1.00;;;17.60;86.30;;;;;;4740945;30;20121;-78
2023/10/08 01:00:33;;;;;;;1.42;0.77;;;17.60;86.40;;;;;;4751640;30;20101;-77
2023/10/08 01:03:00;;;;;;;1.52;0.95;;;17.60;86.50;;;;;;4747623;30;20076;-77
2023/10/08 01:08:06;;;;;;;2.95;1.17;;;17.60;86.60;;;;;;4753982;30;20065;-77
2023/10/08 01:10:32;;;;;;;2.20;1.13;;;17.60;86.70;;;;;;4751864;30;20025;-78
2023/10/08 01:13:05;;;;;;;1.83;0.90;;;17.60;86.80;;;;;;4755771;30;20067;-79
2023/10/08 01:15:35;;;;;;;3.60;1.05;;;17.60;86.80;;;;;;4745081;30;20055;-79
2023/10/08 01:18:03;;;;;;;2.63;1.15;;;17.60;86.80;;;;;;4759944;30;20092;-78
2023/10/08 01:20:37;;;;;;;2.33;0.80;;;17.60;86.80;;;;;;4758754;30;20045;-79
2023/10/08 01:23:13;;;;;;;2.10;0.85;;;17.60;86.90;;;;;;4757106;30;20057;-79
2023/10/08 01:25:40;;;;;;;1.88;1.00;;;17.60;86.90;;;;;;4748103;30;20048;-80
2023/10/08 01:30:46;;;;;;;1.98;0.90;;;17.60;87.00;;;;;;4726652;30;20060;-78
2023/10/08 01:33:14;;;;;;;2.17;1.10;;;17.60;87.00;;;;;;4773526;30;20035;-80
2023/10/08 01:35:41;;;;;;;3.70;1.30;;;17.50;87.00;;;;;;4744402;30;20080;-79
2023/10/08 01:38:08;;;;;;;3.55;1.50;;;17.60;87.20;;;;;;4749098;30;20596;-79
2023/10/08 01:40:34;;;;;;;4.45;1.90;;;17.50;87.10;;;;;;4746894;30;20136;-79
2023/10/08 01:42:59;;;;;;;5.65;2.38;;;17.50;87.20;;;;;;4742104;30;20080;-78
2023/10/08 01:45:26;;;;;;;4.95;2.47;;;17.50;87.20;;;;;;4735462;30;20048;-80
2023/10/08 01:47:54;;;;;;;5.75;2.08;;;17.50;87.30;;;;;;4720246;30;20033;-80
2023/10/08 01:50:21;;;;;;;4.63;2.20;;;17.50;87.30;;;;;;4735092;30;20040;-81
2023/10/08 01:52:51;;;;;;;4.80;2.33;;;17.50;87.40;;;;;;4711423;30;20052;-80
2023/10/08 01:55:19;;;;;;;4.55;2.20;;;17.50;87.40;;;;;;4739832;30;20057;-80
2023/10/08 01:57:46;;;;;;;3.55;1.60;;;17.40;87.40;;;;;;4735320;30;20087;-81
2023/10/08 02:00:20;;;;;;;2.78;1.40;;;17.50;87.50;;;;;;4730172;30;20033;-78
2023/10/08 02:02:47;;;;;;;3.13;1.10;;;17.40;87.60;;;;;;4735209;30;20449;-78
2023/10/08 02:05:15;;;;;;;3.78;1.63;;;17.40;87.60;;;;;;4732761;30;20051;-78
2023/10/08 02:07:44;;;;;;;2.70;1.40;;;17.40;87.70;;;;;;4736059;30;20071;-78
2023/10/08 02:10:10;;;;;;;2.67;1.60;;;17.40;87.70;;;;;;4738137;30;20049;-77
2023/10/08 02:12:37;;;;;;;2.80;1.30;;;17.40;87.80;;;;;;4734826;30;20051;-78
2023/10/08 02:15:06;;;;;;;2.47;1.20;;;17.30;87.90;;;;;;4734022;30;20121;-78
2023/10/08 02:17:33;;;;;;;1.77;1.10;;;17.30;87.90;;;;;;4718404;30;20132;-79
2023/10/08 02:19:59;;;;;;;3.75;1.20;;;17.30;88.00;;;;;;4721492;30;20064;-78
2023/10/08 02:22:24;;;;;;;1.38;1.00;;;17.40;88.10;;;;;;4737606;30;20106;-80
2023/10/08 02:24:50;;;;;;;1.92;0.93;;;17.30;88.10;;;;;;4754558;30;20496;-80
2023/10/08 02:27:16;;;;;;;2.33;0.90;;;17.20;88.10;;;;;;4754357;30;20060;-80
2023/10/08 02:29:42;;;;;;;2.05;0.82;;;17.20;88.10;;;;;;4754757;30;20040;-81
2023/10/08 02:32:09;;;;;;;2.72;1.23;;;17.20;88.10;;;;;;4740369;30;20119;-80
2023/10/08 02:34:35;;;;;;;1.83;0.90;;;17.30;88.20;;;;;;4756142;30;20092;-81
2023/10/08 02:37:03;;;;;;;1.67;1.10;;;17.20;88.20;;;;;;4757127;30;20048;-80
2023/10/08 02:39:31;;;;;;;1.75;1.10;;;17.30;88.20;;;;;;4755976;30;20064;-79
2023/10/08 02:41:59;;;;;;;1.60;0.82;;;17.20;88.20;;;;;;4755563;30;20032;-81
2023/10/08 02:44:25;;;;;;;3.33;1.20;;;17.20;88.20;;;;;;4739127;30;20040;-80
2023/10/08 02:46:52;;;;;;;1.20;0.80;;;17.20;88.20;;;;;;4754569;30;20048;-80
2023/10/08 02:49:20;;;;;;;2.75;1.17;;;17.20;88.30;;;;;;4735742;30;20462;-81
2023/10/08 02:51:50;;;;;;;2.97;1.20;;;17.00;88.20;;;;;;4734420;30;20083;-81
2023/10/08 02:54:17;;;;;;;3.05;1.10;;;17.10;88.30;;;;;;4745167;30;20057;-81
2023/10/08 02:56:46;;;;;;;3.30;1.13;;;17.00;88.40;;;;;;4728914;30;20041;-81
2023/10/08 02:59:13;;;;;;;2.20;0.90;;;17.10;88.50;;;;;;4744282;30;20126;-81
2023/10/08 03:01:40;;;;;;;3.28;1.27;;;17.00;88.50;;;;;;4745423;30;20049;-80
2023/10/08 03:04:17;;;;;;;0.82;0.70;;;17.00;88.50;;;;;;4743097;30;20045;-80
2023/10/08 03:06:44;;;;;;;2.67;1.02;;;17.00;88.50;;;;;;4746983;30;20119;-81
2023/10/08 03:09:13;;;;;;;1.55;1.08;;;17.00;88.40;;;;;;4750580;30;20087;-80
2023/10/08 03:11:39;;;;;;;2.42;1.27;;;17.00;88.40;;;;;;4751780;30;20047;-81
2023/10/08 03:14:14;;;;;;;5.75;1.38;;;17.10;88.60;;;;;;4755336;30;20037;-80
2023/10/08 03:16:48;;;;;;;1.58;1.08;;;16.90;88.60;;;;;;4758283;30;20045;-80
2023/10/08 03:19:14;;;;;;;2.92;1.20;;;16.90;88.60;;;;;;4730119;30;20119;-80
2023/10/08 03:21:48;;;;;;;3.92;1.30;;;16.90;88.70;;;;;;4772767;30;20087;-79
2023/10/08 03:24:29;;;;;;;2.13;1.00;;;16.90;88.70;;;;;;4758320;30;20100;-80
2023/10/08 03:29:41;;;;;;;1.17;0.75;;;16.90;88.70;;;;;;4756915;30;20055;-78
2023/10/08 03:32:13;;;;;;;1.55;1.02;;;16.90;88.70;;;;;;4756024;30;20501;-79
2023/10/08 03:34:43;;;;;;;3.00;1.25;;;16.80;88.70;;;;;;4742511;30;20053;-80
2023/10/08 03:37:11;;;;;;;2.58;1.20;;;16.80;88.70;;;;;;4742108;30;20051;-79
2023/10/08 03:42:22;;;;;;;1.75;0.80;;;16.90;88.80;;;;;;4756711;30;20048;-79
2023/10/08 03:44:51;;;;;;;1.80;1.00;;;16.80;88.70;;;;;;4756224;30;20044;-79
2023/10/08 03:47:18;;;;;;;1.92;0.90;;;16.90;88.70;;;;;;4768492;30;20116;-80
2023/10/08 03:49:50;;;;;;;1.77;0.93;;;16.90;88.70;;;;;;4754218;30;20045;-79
2023/10/08 03:52:19;;;;;;;2.67;1.00;;;16.90;88.70;;;;;;4754387;30;20120;-79
2023/10/08 03:54:48;;;;;;;1.90;1.13;;;16.90;88.90;;;;;;4755451;30;20528;-80
2023/10/08 03:57:18;;;;;;;1.33;0.90;;;16.80;88.80;;;;;;4755251;30;20488;-79
2023/10/08 03:59:48;;;;;;;2.78;1.30;;;16.80;88.80;;;;;;4754375;30;20048;-79
2023/10/08 04:02:15;;;;;;;2.42;1.40;;;16.90;88.90;;;;;;4750963;30;20053;-78
2023/10/08 04:04:51;;;;;;;2.92;1.30;;;16.80;88.80;;;;;;4754909;30;20032;-80
2023/10/08 04:07:28;;;;;;;3.70;1.38;;;16.80;88.90;;;;;;4754109;30;20441;-79
2023/10/08 04:12:44;;;;;;;1.92;0.75;;;16.80;88.90;;;;;;4739074;30;20059;-79
2023/10/08 04:15:12;;;;;;;1.25;0.90;;;16.80;88.90;;;;;;4754625;30;20056;-79
2023/10/08 04:17:50;;;;;;;1.65;0.88;;;16.80;88.90;;;;;;4738128;30;20036;-79
2023/10/08 04:22:53;;;;;;;1.58;0.57;;;16.80;88.90;;;;;;4744966;30;20043;-80
2023/10/08 04:25:20;;;;;;;1.75;0.90;;;16.80;89.00;;;;;;4729261;30;20044;-79
2023/10/08 04:27:49;;;;;;;2.08;1.20;;;16.80;89.00;;;;;;4742434;30;20044;-79
2023/10/08 04:30:16;;;;;;;1.90;1.10;;;16.80;89.00;;;;;;4728166;30;20036;-81
2023/10/08 04:32:42;;;;;;;1.70;1.15;;;16.80;89.00;;;;;;4730528;30;20059;-81
2023/10/08 04:35:14;;;;;;;2.25;1.10;;;16.80;89.60;;;;;;4746793;30;20123;-80
2023/10/08 04:37:41;;;;;;;1.25;0.95;;;16.90;89.10;;;;;;4744776;30;20050;-80
2023/10/08 04:40:15;;;;;;;2.17;1.02;;;16.80;89.00;;;;;;4728526;30;20084;-81
2023/10/08 04:42:44;;;;;;;2.00;0.90;;;16.80;89.00;;;;;;4738002;30;20057;-78
2023/10/08 04:45:13;;;;;;;1.85;0.90;;;16.80;89.70;;;;;;4754587;30;20079;-80
2023/10/08 04:47:42;;;;;;;1.75;1.27;;;16.80;89.10;;;;;;4738359;30;20076;-79
2023/10/08 04:50:15;;;;;;;2.40;0.90;;;16.80;89.10;;;;;;4727932;30;20052;-81
2023/10/08 04:52:47;;;;;;;3.03;1.20;;;16.80;89.10;;;;;;4730846;30;20048;-81
2023/10/08 04:55:19;;;;;;;3.22;1.20;;;16.80;89.10;;;;;;4736478;30;20064;-80
2023/10/08 04:57:45;;;;;;;1.73;0.95;;;16.80;89.10;;;;;;4735229;30;20050;-81
2023/10/08 05:00:15;;;;;;;1.92;1.02;;;16.80;89.20;;;;;;4719403;30;20076;-80
2023/10/08 05:02:50;;;;;;;1.63;1.00;;;16.70;89.20;;;;;;4733894;30;20493;-80
2023/10/08 05:05:29;;;;;;;3.17;1.30;;;16.70;89.30;;;;;;4706861;30;20041;-80
2023/10/08 05:08:00;;;;;;;2.20;1.00;;;16.60;89.30;;;;;;4733212;30;20072;-81
2023/10/08 05:10:44;;;;;;;2.45;0.82;;;16.60;89.40;;;;;;4750494;30;20484;-80
2023/10/08 05:19:06;;;;;;;1.20;0.70;;;16.20;89.70;;;;;;4733373;30;20056;-80
2023/10/08 05:21:25;;;;;;;1.52;0.70;;;16.30;89.90;;;;;;4733236;30;20061;-80
2023/10/08 05:24:08;;;;;;;0.88;0.73;;;16.20;89.90;;;;;;4733456;30;20045;-80
2023/10/08 05:26:41;;;;;;;1.52;0.73;;;16.20;90.00;;;;;;4719727;30;20048;-80
2023/10/08 05:32:30;;;;;;;2.67;0.80;;;16.10;90.00;;;;;;4733249;30;20052;-80
2023/10/08 05:34:56;;;;;;;2.45;0.80;;;16.10;90.00;;;;;;4733432;30;20131;-80
2023/10/08 05:37:32;;;;;;;2.97;0.75;;;16.00;90.00;;;;;;4707817;30;20052;-80
2023/10/08 05:40:21;;;;;;;1.55;0.40;;;16.00;90.10;;;;;;4719064;30;20183;-80
2023/10/08 05:42:46;;;;;;;2.30;0.88;;;15.90;90.00;;;;;;4732754;30;20052;-80
2023/10/08 05:45:14;;;;;;;1.50;0.70;;;16.00;90.10;;;;;;4733256;30;20048;-80
2023/10/08 05:47:51;;;;;;;0.68;0.65;;;15.90;90.00;;;;;;4735043;30;20053;-80
2023/10/08 05:53:15;;;;;;;1.42;0.65;;;15.80;90.10;;;;;;4725290;30;20048;-80
2023/10/08 05:55:47;;;;;;;0.88;0.47;;;15.80;90.10;;;;;;4739096;30;20117;-80
2023/10/08 05:58:13;;;;;;;1.05;0.68;;;15.70;90.10;;;;;;4725147;30;20049;-80
2023/10/08 06:01:06;;;;;;;2.13;0.80;;;15.80;90.10;;;;;;4720877;30;20505;-80
2023/10/08 06:03:35;;;;;;;1.13;0.60;;;15.60;90.20;;;;;;4737064;30;20120;-81
2023/10/08 06:06:22;;;;;;;1.65;0.60;;;15.60;90.10;;;;;;4719385;30;20123;-80
2023/10/08 06:08:49;;;;;;;1.33;0.70;;;15.50;90.10;;;;;;4710516;30;20130;-80
2023/10/08 06:14:00;;;;;;;1.98;0.85;;;15.40;90.10;;;;;;4754212;30;20420;-80
2023/10/08 06:16:41;;;;;;;2.33;0.95;;;15.40;90.10;;;;;;4742309;30;20048;-81
2023/10/08 06:19:09;;;;;;;;;;;15.30;90.10;;;;;;4753884;30;20056;-81
2023/10/08 06:21:37;;;;;;;1.67;0.80;;;15.20;90.10;;;;;;4752353;30;19918;-79
2023/10/08 06:24:08;;;;;;;0.73;0.60;;;15.20;90.20;;;;;;4754180;30;20131;-81
2023/10/08 06:26:42;;;;;;;1.75;0.70;;;15.10;90.10;;;;;;4755084;30;20049;-79
2023/10/08 06:29:18;;;;;;;1.85;0.60;;;15.10;90.20;;;;;;4729130;30;20064;-79
2023/10/08 06:31:51;;;;;;;0.88;0.70;;;15.00;90.20;;;;;;4698580;30;20032;-80
2023/10/08 06:34:21;;;;;;;1.48;0.60;;;15.00;90.20;;;;;;4722708;30;20072;-80
2023/10/08 06:36:48;;;;;;;0.93;0.67;;;15.00;90.10;;;;;;4719182;30;20045;-79
2023/10/08 06:39:18;;;;;;;1.48;0.50;;;14.90;90.10;;;;;;4710188;30;20111;-79
2023/10/08 06:41:46;;;;;;;0.65;0.50;;;14.90;90.10;;;;;;4712199;30;20056;-79
2023/10/08 06:44:15;;;;;;;1.88;0.60;;;14.90;90.10;;;;;;4731152;30;20065;-78
2023/10/08 06:46:48;;;;;;;1.63;0.60;;;14.90;90.10;;;;;;4699170;30;20057;-82
2023/10/08 06:49:31;;;;;;;1.42;0.60;;;14.90;90.10;;;;;;4701277;30;20112;-82
2023/10/08 06:52:09;;;;;;;1.80;0.60;;;14.90;90.00;;;;;;4703576;30;20145;-82
2023/10/08 06:54:43;;;;;;;1.80;0.50;;;14.80;90.00;;;;;;4712966;30;20122;-82
2023/10/08 06:57:13;;;;;;;1.25;0.50;;;14.90;90.00;;;;;;4696492;30;20450;-83
2023/10/08 06:59:42;;;;;;;1.35;0.60;;;14.80;90.00;;;;;;4679582;30;20498;-82
2023/10/08 07:02:09;;;;;;;0.75;0.47;;;14.80;90.00;;;;;;4671297;30;20603;-82
2023/10/08 07:04:35;;;;;;;0.85;0.50;;;14.80;90.00;;;;;;4681916;30;20046;-82
2023/10/08 07:07:01;;;;;;;0.55;0.50;;;14.80;90.00;;;;;;4696430;30;20141;-82
2023/10/08 07:09:31;;;;;;;0.93;0.40;;;14.80;89.90;;;;;;4682453;30;20468;-81
2023/10/08 07:12:05;;;;;;;0.52;0.50;;;14.80;89.80;;;;;;4681408;30;20053;-82
2023/10/08 07:14:31;;;;;;;0.55;0.32;;;14.80;89.90;;;;;;4682821;30;20088;-82
2023/10/08 07:16:59;;;;;;;1.23;0.65;;;14.80;89.80;;;;;;4669223;30;20065;-82
2023/10/08 07:22:17;;;;;;;0.75;0.65;;;14.80;89.70;;;;;;4683089;30;20147;-82
2023/10/08 07:24:45;;;;;;;1.58;0.50;;;14.80;89.70;;;;;;4676551;30;20036;-82
2023/10/08 07:27:11;;;;;;;0.50;0.50;;;14.80;89.60;;;;;;4717636;30;20132;-82
2023/10/08 07:29:37;;;;;;;0.50;0.50;;;14.90;89.60;;;;;;4717246;30;20128;-82
2023/10/08 07:32:12;;;;;;;0.45;0.43;;;14.90;89.50;;;;;;4717238;30;20044;-82
2023/10/08 07:34:39;;;;;;;0.70;0.65;;;14.90;89.40;;;;;;4695830;30;20540;-82
2023/10/08 07:37:06;;;;;;;0.60;0.60;;;14.90;89.50;;;;;;4681980;30;20030;-82
2023/10/08 07:39:43;;;;;;;0.55;0.55;;;14.90;89.40;;;;;;4667672;30;20045;-81
2023/10/08 07:42:11;;;;;;;0.65;0.60;;;14.90;89.40;;;;;;4695456;30;20049;-81
2023/10/08 07:44:42;;;;;;;0.75;0.70;;;14.90;89.30;;;;;;4681679;30;20081;-82
2023/10/08 07:47:12;;;;;;;0.80;0.70;;;14.90;89.30;;;;;;4681851;30;20092;-82
2023/10/08 07:49:38;;;;;;;0.63;0.60;;;14.90;89.30;;;;;;4681766;30;20084;-82
2023/10/08 07:52:09;;;;;;;0.90;0.75;;;14.90;89.20;;;;;;4696453;30;20053;-82
2023/10/08 07:54:34;;;;;;;0.68;0.55;;;15.00;89.20;;;;;;4695783;30;20152;-81
2023/10/08 07:57:09;;;;;;;2.15;0.60;;;14.90;89.20;;;;;;4681946;30;20125;-81
2023/10/08 07:59:38;;;;;;;0.98;0.70;;;15.00;89.20;;;;;;4695767;30;20537;-81
2023/10/08 08:02:09;;;;;;;1.30;0.85;;;15.00;89.10;;;;;;4696601;30;20095;-81
2023/10/08 08:04:39;;;;;;;1.20;0.93;;;15.10;89.10;;;;;;4703836;30;20060;-81
2023/10/08 08:07:06;;;;;;;1.35;0.98;;;15.10;89.00;;;;;;4734389;30;20059;-81
2023/10/08 08:09:37;;;;;;;1.00;0.90;;;15.10;88.80;;;;;;4736373;30;20098;-81
2023/10/08 08:12:11;;;;;;;1.27;0.90;;;15.20;88.70;;;;;;4706765;30;20060;-82
2023/10/08 08:14:41;;;;;;;1.10;0.90;;;15.20;88.70;;;;;;4707013;30;20064;-82
2023/10/08 08:17:14;;;;;;;0.70;0.60;;;15.20;88.80;;;;;;4720190;30;20135;-82
2023/10/08 08:19:44;;;;;;;1.58;0.90;;;15.20;88.80;;;;;;4751364;30;20072;-82
2023/10/08 08:22:15;;;;;;;1.02;0.77;;;15.30;89.00;;;;;;4751783;30;20028;-81
2023/10/08 08:24:44;;;;;;;0.85;0.65;;;15.10;88.90;;;;;;4736716;30;20412;-83
2023/10/08 08:27:23;;;;;;;0.85;0.60;;;15.20;88.90;;;;;;4736827;30;20037;-84
2023/10/08 08:29:55;;;;;;;0.82;0.70;;;15.20;89.00;;;;;;4706936;30;20052;-83
2023/10/08 08:32:22;;;;;;;0.95;0.60;;;15.20;89.00;;;;;;4720347;30;20052;-82
2023/10/08 08:34:50;;;;;;;0.90;0.70;;;15.10;89.00;;;;;;4704943;30;20041;-82
2023/10/08 08:37:17;;;;;;;2.03;0.80;;;15.30;89.10;;;;;;4735839;30;20055;-83
2023/10/08 08:39:43;;;;;;;0.85;0.73;;;15.10;89.10;;;;;;4721460;30;20496;-82
2023/10/08 08:42:10;;;;;;;0.85;0.73;;;15.10;89.10;;;;;;4706057;30;20112;-83
2023/10/08 08:44:45;;;;;;;0.57;0.50;;;15.00;89.20;;;;;;4720193;30;20123;-82
2023/10/08 08:47:17;;;;;;;0.77;0.60;;;15.10;89.40;;;;;;4735139;30;20501;-82
2023/10/08 08:49:45;;;;;;;0.88;0.80;;;15.00;89.50;;;;;;4719653;30;20540;-82
2023/10/08 08:52:12;;;;;;;0.82;0.50;;;15.00;89.50;;;;;;4735250;30;20051;-82
2023/10/08 08:54:40;;;;;;;0.60;0.60;;;15.00;89.50;;;;;;4736828;30;20048;-82
2023/10/08 08:57:13;;;;;;;1.05;0.70;;;15.00;89.30;;;;;;4735274;30;20063;-82
2023/10/08 08:59:48;;;;;;;0.68;0.50;;;15.00;89.30;;;;;;4735267;30;20040;-83
2023/10/08 09:02:15;;;;;;;0.82;0.60;;;15.20;89.40;;;;;;4705626;30;20055;-81
2023/10/08 09:04:41;;;;;;;1.17;0.70;;;15.10;89.20;;;;;;4748708;30;20052;-81
2023/10/08 09:07:08;;;;;;;1.63;0.70;;;15.10;89.20;;;;;;4748263;30;20045;-81
2023/10/08 09:09:39;;;;;;;0.82;0.68;;;15.10;89.20;;;;;;4704645;30;20052;-80
2023/10/08 09:12:07;;;;;;;1.45;0.60;;;15.10;89.30;;;;;;4719369;30;20397;-81
2023/10/08 09:14:36;;;;;;;0.60;0.60;;;15.10;89.20;;;;;;4718116;30;20053;-81
2023/10/08 09:17:04;;;;;;;0.93;0.60;;;15.30;89.10;;;;;;4733287;30;20045;-81
2023/10/08 09:19:35;;;;;;;0.30;0.30;;;15.30;89.10;;;;;;4733373;30;20037;-80
2023/10/08 09:22:06;;;;;;;0.68;0.50;;;15.30;88.90;;;;;;4719563;30;20043;-81
2023/10/08 09:24:37;;;;;;;1.17;0.60;;;15.40;88.80;;;;;;4701062;30;20076;-81
2023/10/08 09:27:07;;;;;;;0.55;0.40;;;15.50;88.70;;;;;;4700312;30;20140;-81
2023/10/08 09:29:39;;;;;;;0.37;0.37;;;15.50;88.60;;;;;;4699682;30;20053;-81
2023/10/08 09:32:08;;;;;;;1.23;0.60;;;15.60;88.40;;;;;;4683937;30;20060;-80
2023/10/08 09:34:39;;;;;;;0.43;0.40;;;15.70;88.30;;;;;;4683207;30;20054;-81
2023/10/08 09:37:07;;;;;;;0.45;0.43;;;15.70;88.10;;;;;;4673106;30;20494;-80
2023/10/08 09:39:36;;;;;;;1.45;0.52;;;15.70;88.00;;;;;;4683748;30;20053;-81
2023/10/08 09:42:06;;;;;;;0.20;0.20;;;15.80;88.00;;;;;;4684020;30;20060;-79
2023/10/08 09:44:32;;;;;;;0.82;0.30;;;15.70;87.90;;;;;;4697882;30;20053;-80
2023/10/08 09:47:04;;;;;;;1.02;0.52;;;15.80;87.90;;;;;;4699032;30;20046;-82
2023/10/08 09:49:33;;;;;;;0.55;0.35;;;15.80;87.90;;;;;;4670254;30;20037;-83
2023/10/08 09:52:05;;;;;;;0.63;0.40;;;15.80;87.80;;;;;;4686171;30;20049;-82
2023/10/08 09:54:51;;;;;;;0.10;0.10;;;15.80;87.60;;;;;;4669773;30;20062;-81
2023/10/08 09:57:18;;;;;;;0.43;0.40;;;15.90;87.60;;;;;;4686729;30;20050;-81
2023/10/08 09:59:46;;;;;;;0.40;0.40;;;16.00;87.50;;;;;;4669237;30;20057;-78
2023/10/08 10:02:12;;;;;;;0.50;0.30;;;16.00;87.40;;;;;;4689285;30;20389;-82
2023/10/08 10:04:45;;;;;;;0.60;0.40;;;16.10;87.20;;;;;;4735597;30;20051;-79
2023/10/08 10:07:14;;;;;;;0.55;0.22;;;16.10;87.00;;;;;;4719161;30;20049;-81
2023/10/08 10:09:45;;;;;;;0.30;0.30;;;16.20;87.00;;;;;;4718977;30;20045;-82
2023/10/08 10:12:11;;;;;;;0.28;0.28;;;16.20;86.80;;;;;;4732581;30;20049;-82
2023/10/08 10:14:55;;;;;;;1.23;0.40;;;16.30;86.80;;;;;;4747220;30;20053;-82
2023/10/08 10:17:25;;;;;;;0.25;0.22;;;16.30;86.80;;;;;;4718879;30;20040;-82
2023/10/08 10:20:01;;;;;;;0.25;0.25;;;16.40;86.70;;;;;;4718345;30;20032;-82
2023/10/08 10:22:29;;;;;;;0.40;0.40;;;16.30;86.60;;;;;;4734143;30;20041;-82
2023/10/08 10:24:56;;;;;;;0.20;0.20;;;16.40;86.60;;;;;;4717846;30;20091;-82
2023/10/08 10:27:22;;;;;;;0.22;0.22;;;16.50;86.50;;;;;;4732936;30;20049;-82
2023/10/08 10:29:48;;;;;;;0.40;0.30;;;16.50;86.40;;;;;;4732598;30;20055;-82
2023/10/08 10:32:16;;;;;;;0.50;0.30;;;16.60;86.30;;;;;;4718630;30;20040;-81
2023/10/08 10:34:44;;;;;;;0.38;0.30;;;16.60;86.10;;;;;;4718070;30;20063;-82
2023/10/08 10:37:19;;;;;;;0.30;0.30;;;16.70;86.10;;;;;;4719590;30;20169;-82
2023/10/08 10:39:55;;;;;;;0.45;0.32;;;16.80;85.90;;;;;;4707121;30;20045;-81
2023/10/08 10:42:21;;;;;;;0.60;0.40;;;16.80;85.90;;;;;;4739001;30;20488;-83
2023/10/08 10:44:50;;;;;;;0.88;0.50;;;16.80;85.80;;;;;;4702106;30;20056;-82
2023/10/08 10:50:25;;;;;;;0.20;0.20;;;16.80;85.70;;;;;;4714452;30;20485;-82
2023/10/08 10:52:52;;;;;;;0.60;0.30;;;16.90;85.80;;;;;;4713627;30;20053;-81
2023/10/08 10:55:21;;;;;;;0.50;0.38;;;16.90;85.80;;;;;;4699335;30;20053;-79
2023/10/08 10:57:56;;;;;;;0.65;0.40;;;17.00;85.70;;;;;;4697933;30;20136;-81
2023/10/08 11:03:16;;;;;;;0.82;0.45;;;17.10;85.40;;;;;;4701829;30;20578;-82
2023/10/08 11:05:48;;;;;;;1.15;0.52;;;17.20;85.30;;;;;;4713626;30;20057;-81
2023/10/08 11:08:18;;;;;;;1.65;0.50;;;17.20;85.30;;;;;;4700596;30;20048;-80
2023/10/08 11:10:50;;;;;;;1.17;0.40;;;17.20;85.20;;;;;;4714708;30;20049;-79
2023/10/08 11:13:19;;;;;;;0.20;0.20;;;17.30;85.10;;;;;;4717362;30;20032;-78
2023/10/08 11:15:49;;;;;;;0.40;0.40;;;17.40;85.00;;;;;;4726442;30;20059;-79
2023/10/08 11:18:18;;;;;;;0.30;0.20;;;17.40;84.90;;;;;;4703472;30;20523;-79
2023/10/08 11:20:44;;;;;;;0.45;0.45;;;17.40;84.80;;;;;;4733584;30;20123;-80
2023/10/08 11:23:28;;;;;;;0.75;0.40;;;17.40;84.90;;;;;;4717638;30;20099;-79
2023/10/08 11:26:02;;;;;;;0.30;0.30;;;17.40;85.00;;;;;;4661221;30;20034;-79
2023/10/08 11:28:29;;;;;;;0.30;0.30;;;17.40;85.00;;;;;;4662639;30;20045;-80
2023/10/08 11:30:59;;;;;;;0.40;0.40;;;17.50;85.00;;;;;;4633475;30;20046;-80
2023/10/08 11:33:27;;;;;;;0.40;0.40;;;17.60;85.00;;;;;;4648368;30;20047;-79
2023/10/08 11:36:18;;;;;;;0.30;0.30;;;17.50;84.80;;;;;;4661971;30;20102;-79
2023/10/08 11:38:47;;;;;;;0.73;0.50;;;17.60;84.80;;;;;;4637937;30;20057;-79
2023/10/08 11:41:22;;;;;;;0.60;0.40;;;17.60;84.90;;;;;;4651062;30;20098;-79
2023/10/08 11:43:53;;;;;;;0.88;0.55;;;17.50;84.90;;;;;;4651785;30;20051;-80
2023/10/08 11:46:25;;;;;;;0.30;0.30;;;17.50;85.10;;;;;;4634099;30;20050;-79
2023/10/08 11:48:51;;;;;;;0.35;0.30;;;17.50;85.20;;;;;;4618851;30;20047;-79
2023/10/08 11:51:17;;;;;;;0.40;0.40;;;17.50;85.20;;;;;;4648003;30;20145;-78
2023/10/08 11:53:44;;;;;;;0.40;0.40;;;17.60;85.20;;;;;;4619353;30;20131;-79
2023/10/08 11:56:13;;;;;;;0.60;0.40;;;17.60;85.00;;;;;;4632843;30;20132;-78
2023/10/08 11:58:44;;;;;;;0.47;0.35;;;17.60;84.90;;;;;;4701965;30;20057;-79
2023/10/08 12:01:15;;;;;;;0.32;0.28;;;17.60;84.80;;;;;;4701703;30;20139;-80
2023/10/08 12:03:43;;;;;;;0.40;0.40;;;17.50;85.40;;;;;;4716276;30;20037;-80
2023/10/08 12:06:15;;;;;;;0.35;0.35;;;17.60;85.00;;;;;;4703721;30;20049;-76
2023/10/08 12:08:41;;;;;;;0.30;0.30;;;17.50;85.00;;;;;;4722419;30;20047;-75
2023/10/08 12:11:11;;;;;;;0.30;0.30;;;17.50;85.10;;;;;;4705121;30;20041;-75
2023/10/08 12:13:38;;;;;;;0.85;0.32;;;17.50;85.20;;;;;;4695177;30;20071;-76
2023/10/08 12:16:22;;;;;;;0.40;0.30;;;17.40;85.30;;;;;;4702483;30;20151;-76
2023/10/08 12:18:52;;;;;;;0.28;0.28;;;17.50;85.50;;;;;;4748943;30;20068;-75
2023/10/08 12:21:19;;;;;;;0.30;0.30;;;17.30;85.60;;;;;;4734549;30;20500;-75
2023/10/08 12:23:46;;;;;;;0.50;0.40;;;17.30;85.60;;;;;;4737218;30;20041;-77
2023/10/08 12:26:15;;;;;;;0.28;0.28;;;17.40;85.50;;;;;;4735155;30;20524;-76
2023/10/08 12:28:45;;;;;;;0.30;0.30;;;17.40;85.40;;;;;;4736483;30;20052;-74
2023/10/08 12:31:12;;;;;;;0.40;0.32;;;17.40;85.30;;;;;;4706795;30;20045;-75
2023/10/08 12:33:40;;;;;;;0.30;0.30;;;17.50;85.40;;;;;;4734697;30;20053;-75
2023/10/08 12:36:10;;;;;;;0.77;0.40;;;17.50;85.40;;;;;;4734195;30;20057;-75
2023/10/08 12:38:37;;;;;;;0.43;0.40;;;17.50;85.30;;;;;;4737026;30;20059;-74
2023/10/08 12:41:11;;;;;;;0.43;0.32;;;17.40;85.30;;;;;;4735284;30;20123;-75
2023/10/08 12:43:42;;;;;;;0.30;0.30;;;17.50;85.20;;;;;;4733765;30;20067;-74
2023/10/08 12:46:15;;;;;;;0.40;0.40;;;17.50;85.20;;;;;;4748402;30;20036;-74
2023/10/08 12:48:43;;;;;;;0.63;0.55;;;17.60;85.20;;;;;;4719168;30;20056;-74
2023/10/08 12:51:11;;;;;;;0.40;0.32;;;17.60;85.20;;;;;;4734892;30;20064;-73
2023/10/08 12:53:37;;;;;;;0.85;0.50;;;17.60;85.20;;;;;;4733795;30;20052;-74
2023/10/08 12:56:05;;;;;;;0.30;0.30;;;17.60;85.20;;;;;;4735889;30;20080;-74
2023/10/08 12:58:41;;;;;;;1.45;0.50;;;17.70;85.10;;;;;;4735649;30;20044;-75
2023/10/08 13:01:09;;;;;;;0.75;0.50;;;17.70;84.90;;;;;;4734040;30;20037;-74
2023/10/08 13:03:41;;;;;;;0.60;0.45;;;17.80;84.80;;;;;;4733916;30;20048;-75
2023/10/08 13:06:11;;;;;;;0.30;0.30;;;17.80;84.70;;;;;;4724220;30;20052;-75
2023/10/08 13:08:37;;;;;;;0.40;0.40;;;17.80;84.60;;;;;;4735923;30;20049;-74
2023/10/08 13:11:03;;;;;;;1.33;0.57;;;17.70;84.60;;;;;;4733665;30;20484;-74
2023/10/08 13:13:32;;;;;;;0.73;0.50;;;17.80;84.80;;;;;;4707282;30;20040;-77
2023/10/08 13:16:02;;;;;;;1.75;0.43;;;17.70;84.80;;;;;;4720588;30;20110;-75
2023/10/08 13:18:29;;;;;;;0.47;0.40;;;17.60;84.80;;;;;;4720419;30;20106;-76
2023/10/08 13:20:55;;;;;;;0.45;0.38;;;17.70;84.90;;;;;;4732971;30;20048;-76
2023/10/08 13:23:23;;;;;;;0.50;0.50;;;17.70;85.00;;;;;;4720482;30;20037;-76
2023/10/08 13:26:04;;;;;;;0.82;0.40;;;17.60;85.10;;;;;;4732029;30;20056;-75
2023/10/08 13:28:30;;;;;;;0.30;0.30;;;17.50;85.80;;;;;;4721476;30;20527;-75
2023/10/08 13:30:55;;;;;;;0.63;0.57;;;17.60;85.30;;;;;;4742803;30;20049;-80
2023/10/08 13:33:22;;;;;;;0.50;0.50;;;17.60;85.40;;;;;;4710166;30;20045;-76
2023/10/08 13:35:49;;;;;;;0.55;0.52;;;17.50;85.40;;;;;;4722456;30;20060;-76
2023/10/08 13:38:19;;;;;;;0.52;0.47;;;17.50;86.00;;;;;;4718702;30;20051;-75
2023/10/08 13:43:33;;;;;;;0.70;0.70;;;17.50;85.50;;;;;;4740965;30;20053;-77
2023/10/08 13:46:04;;;;;;;0.52;0.52;;;17.60;85.40;;;;;;4735471;30;20040;-76